createdAt,value
2023-04-11T05:54:43.613Z,100005.33
2023-04-11T06:04:03.396Z,99982.58
2023-04-11T06:13:18.303Z,99974.25
2023-04-11T06:21:43.134Z,99961.73
2023-04-11T06:30:07.528Z,99961.37
2023-04-11T06:38:30.740Z,99952.86
2023-04-11T06:46:54.441Z,99946.14
2023-04-11T06:55:17.885Z,99930.92
2023-04-11T07:04:01.178Z,99924.79
2023-04-11T07:12:24.461Z,99916.61
2023-04-11T07:20:48.699Z,99908.98
2023-04-11T07:29:14.380Z,99904.31
2023-04-11T07:37:50.775Z,99892.73
2023-04-11T07:46:54.965Z,99884.82
2023-04-11T07:55:18.062Z,99863.02
2023-04-11T08:03:41.800Z,99852.37
2023-04-11T08:12:20.442Z,99848.46
2023-04-11T08:21:05.965Z,99832.13
2023-04-11T08:30:08.126Z,99827.95
2023-04-11T08:39:07.725Z,99816.14
2023-04-11T08:48:02.887Z,99815.95
2023-04-11T08:56:45.642Z,99793.43
2023-04-11T09:05:34.183Z,99788.09
2023-04-11T09:14:15.322Z,99775.63
2023-04-11T09:22:39.168Z,99764.16
2023-04-11T09:31:05.513Z,99747.27
2023-04-11T09:39:29.598Z,99725.59
2023-04-11T09:47:55.714Z,99715.55
2023-04-11T09:56:18.963Z,99705.61
2023-04-11T10:04:41.946Z,99696.23
2023-04-11T10:13:43.586Z,99684.31
2023-04-11T10:22:06.712Z,99664.44
2023-04-11T10:30:41.932Z,99649.43
2023-04-11T10:39:04.898Z,99632.42
2023-04-11T10:47:28.996Z,99626.13
2023-04-11T10:55:52.182Z,99619.48
2023-04-11T11:04:16.465Z,99612.39
2023-04-11T11:12:53.033Z,99595.05
2023-04-11T11:21:24.767Z,99587.98
2023-04-11T11:29:51.296Z,99591.44
2023-04-11T11:38:14.732Z,99575.48
2023-04-11T11:46:37.823Z,99563.38
2023-04-11T11:55:09.612Z,99572.35
2023-04-11T12:03:34.471Z,99569.52
2023-04-11T12:11:57.769Z,99563.38
2023-04-11T12:20:24.382Z,99550.45
2023-04-11T12:28:48.128Z,99538.23
2023-04-11T12:37:11.561Z,99527.30
2023-04-11T12:45:42.678Z,99521.63
2023-04-11T12:54:06.889Z,99502.05
2023-04-11T13:02:42.339Z,99501.02
2023-04-11T13:11:09.073Z,99485.81
2023-04-11T13:19:32.089Z,99474.63
2023-04-11T13:27:55.093Z,99465.16
2023-04-11T13:36:18.319Z,99453.90
2023-04-11T13:44:41.269Z,99447.29
2023-04-11T13:53:04.341Z,99423.85
2023-04-11T14:01:27.314Z,99412.73
2023-04-11T14:09:50.630Z,99400.17
2023-04-11T14:18:13.675Z,99386.65
2023-04-11T14:26:36.597Z,99381.05
2023-04-11T14:35:01.983Z,99372.88
2023-04-11T14:43:25.382Z,99365.42
2023-04-11T14:51:48.556Z,99353.55
2023-04-11T15:00:18.144Z,99344.70
2023-04-11T15:08:41.257Z,99343.35
2023-04-11T15:17:04.171Z,99338.14
2023-04-11T15:25:27.125Z,99331.14
2023-04-11T15:33:50.058Z,99318.01
2023-04-11T15:42:12.975Z,99311.32
2023-04-11T15:50:36.145Z,99307.98
2023-04-11T15:58:59.111Z,99300.41
2023-04-11T16:07:23.308Z,99295.69
2023-04-11T16:15:46.694Z,99291.39
2023-04-11T16:24:09.762Z,99282.31
2023-04-11T16:32:33.221Z,99279.34
2023-04-11T16:40:56.236Z,99281.10
2023-04-11T16:49:19.128Z,99278.85
2023-04-11T16:57:42.063Z,99275.02
2023-04-11T17:06:15.138Z,99275.86
2023-04-11T17:14:38.704Z,99272.73
2023-04-11T17:23:01.885Z,99267.45
2023-04-11T17:31:28.066Z,99262.98
2023-04-11T17:39:51.602Z,99268.33
2023-04-11T17:48:14.775Z,99277.72
2023-04-11T17:57:04.897Z,99280.27
2023-04-11T18:05:58.220Z,99286.27
2023-04-11T18:15:28.986Z,99284.16
2023-04-11T18:33:05.116Z,99289.63
2023-04-11T18:42:08.008Z,99290.30
2023-04-11T18:51:12.326Z,99299.06
2023-04-11T19:00:26.213Z,99297.23
2023-04-11T19:09:29.400Z,99294.89
2023-04-11T19:18:36.142Z,99293.79
2023-04-11T19:27:41.071Z,99290.10
2023-04-11T19:36:40.043Z,99287.76
2023-04-11T19:46:25.553Z,99277.20
2023-04-11T19:55:40.224Z,99262.80
2023-04-11T20:06:48.819Z,99261.64
2023-04-11T20:15:56.224Z,99257.46
2023-04-11T20:25:21.327Z,99255.02
2023-04-11T20:34:08.380Z,99254.47
2023-04-11T20:42:33.896Z,99248.45
2023-04-11T20:50:57.141Z,99252.42
2023-04-11T20:59:21.021Z,99253.06
2023-04-11T21:07:44.185Z,99255.34
2023-04-11T21:16:10.087Z,99257.56
2023-04-11T21:24:34.523Z,99253.73
2023-04-11T21:32:59.131Z,99255.50
2023-04-11T21:42:22.721Z,99249.49
2023-04-11T21:51:40.834Z,99238.66
2023-04-11T22:00:33.496Z,99223.01
2023-04-11T22:10:05.985Z,99211.82
2023-04-11T22:18:30.987Z,99210.23
2023-04-11T22:26:58.543Z,99209.70
2023-04-11T22:35:30.607Z,99207.08
2023-04-11T22:43:53.952Z,99200.79
2023-04-11T22:52:22.862Z,99195.23
2023-04-11T23:00:50.099Z,99185.54
2023-04-11T23:09:19.948Z,99183.70
2023-04-11T23:17:45.117Z,99185.30
2023-04-11T23:26:18.663Z,99205.92
2023-04-11T23:34:42.124Z,99206.41
2023-04-11T23:43:42.905Z,99202.45
2023-04-11T23:52:07.843Z,99200.76
